sensor_id;sensor_type;location;lat;lon;timestamp;pressure;altitude;pressure_sealevel;temperature;humidity
8051;BME280;4068;42.158;24.732;2024-01-27T00:01:33;100187.63;;;3.93;77.31
8051;BME280;4068;42.158;24.732;2024-01-27T00:03:58;100217.09;;;4.21;76.53
8051;BME280;4068;42.158;24.732;2024-01-27T00:06:24;100221.53;;;4.19;76.50
8051;BME280;4068;42.158;24.732;2024-01-27T00:08:50;100235.25;;;4.25;76.01
8051;BME280;4068;42.158;24.732;2024-01-27T00:11:15;100236.75;;;4.31;75.56
8051;BME280;4068;42.158;24.732;2024-01-27T00:13:41;100219.72;;;4.21;75.24
8051;BME280;4068;42.158;24.732;2024-01-27T00:16:06;100249.53;;;4.39;74.25
8051;BME280;4068;42.158;24.732;2024-01-27T00:18:35;100241.19;;;4.30;74.17
8051;BME280;4068;42.158;24.732;2024-01-27T00:21:00;100267.81;;;4.42;73.80
8051;BME280;4068;42.158;24.732;2024-01-27T00:23:26;100262.69;;;4.39;73.69
8051;BME280;4068;42.158;24.732;2024-01-27T00:25:51;100244.19;;;4.21;73.49
8051;BME280;4068;42.158;24.732;2024-01-27T00:28:17;100269.84;;;4.35;73.59
8051;BME280;4068;42.158;24.732;2024-01-27T00:30:43;100270.84;;;4.32;73.42
8051;BME280;4068;42.158;24.732;2024-01-27T00:33:08;100242.59;;;4.17;73.14
8051;BME280;4068;42.158;24.732;2024-01-27T00:35:33;100257.97;;;4.26;72.76
8051;BME280;4068;42.158;24.732;2024-01-27T00:37:59;100211.75;;;4.02;72.45
8051;BME280;4068;42.158;24.732;2024-01-27T00:40:24;100247.84;;;4.17;72.65
8051;BME280;4068;42.158;24.732;2024-01-27T00:42:50;100203.47;;;3.90;72.52
8051;BME280;4068;42.158;24.732;2024-01-27T00:45:15;100234.53;;;4.01;72.90
8051;BME280;4068;42.158;24.732;2024-01-27T00:47:41;100222.44;;;3.76;73.33
8051;BME280;4068;42.158;24.732;2024-01-27T00:50:07;100239.94;;;3.76;74.01
8051;BME280;4068;42.158;24.732;2024-01-27T00:52:34;100217.22;;;3.54;75.23
8051;BME280;4068;42.158;24.732;2024-01-27T00:54:59;100232.16;;;3.52;75.39
8051;BME280;4068;42.158;24.732;2024-01-27T00:57:25;100220.50;;;3.37;76.69
8051;BME280;4068;42.158;24.732;2024-01-27T00:59:51;100228.00;;;3.24;77.24
8051;BME280;4068;42.158;24.732;2024-01-27T01:02:16;100219.97;;;3.07;78.78
8051;BME280;4068;42.158;24.732;2024-01-27T01:04:41;100213.81;;;2.84;79.75
8051;BME280;4068;42.158;24.732;2024-01-27T01:07:07;100189.78;;;2.73;81.41
8051;BME280;4068;42.158;24.732;2024-01-27T01:09:33;100175.22;;;2.66;82.28
8051;BME280;4068;42.158;24.732;2024-01-27T01:11:59;100194.28;;;2.69;83.22
8051;BME280;4068;42.158;24.732;2024-01-27T01:14:25;100191.47;;;2.75;83.30
8051;BME280;4068;42.158;24.732;2024-01-27T01:16:50;100183.72;;;2.94;82.22
8051;BME280;4068;42.158;24.732;2024-01-27T01:19:16;100142.31;;;2.82;81.24
8051;BME280;4068;42.158;24.732;2024-01-27T01:21:41;100157.97;;;3.06;79.82
8051;BME280;4068;42.158;24.732;2024-01-27T01:24:07;100134.25;;;3.09;78.88
8051;BME280;4068;42.158;24.732;2024-01-27T01:26:33;100172.16;;;3.44;77.36
8051;BME280;4068;42.158;24.732;2024-01-27T01:28:58;100165.09;;;3.47;76.41
8051;BME280;4068;42.158;24.732;2024-01-27T01:31:24;100153.59;;;3.49;75.36
8051;BME280;4068;42.158;24.732;2024-01-27T01:33:49;100168.06;;;3.59;75.33
8051;BME280;4068;42.158;24.732;2024-01-27T01:36:15;100173.78;;;3.69;74.13
8051;BME280;4068;42.158;24.732;2024-01-27T01:38:40;100170.69;;;3.80;73.82
8051;BME280;4068;42.158;24.732;2024-01-27T01:41:06;100130.34;;;3.62;73.29
8051;BME280;4068;42.158;24.732;2024-01-27T01:43:31;100138.66;;;3.72;73.03
8051;BME280;4068;42.158;24.732;2024-01-27T01:45:57;100165.50;;;3.99;72.37
8051;BME280;4068;42.158;24.732;2024-01-27T01:48:22;100166.50;;;3.96;72.16
8051;BME280;4068;42.158;24.732;2024-01-27T01:50:49;100128.09;;;3.73;72.01
8051;BME280;4068;42.158;24.732;2024-01-27T01:53:15;100158.09;;;3.88;71.89
8051;BME280;4068;42.158;24.732;2024-01-27T01:55:40;100155.25;;;3.93;72.13
8051;BME280;4068;42.158;24.732;2024-01-27T01:58:06;100157.81;;;3.94;71.92
8051;BME280;4068;42.158;24.732;2024-01-27T02:00:32;100117.50;;;3.76;72.03
8051;BME280;4068;42.158;24.732;2024-01-27T02:02:58;100136.56;;;3.80;72.46
8051;BME280;4068;42.158;24.732;2024-01-27T02:05:24;100147.28;;;3.75;73.36
8051;BME280;4068;42.158;24.732;2024-01-27T02:07:50;100143.97;;;3.70;73.36
8051;BME280;4068;42.158;24.732;2024-01-27T02:10:17;100130.00;;;3.49;74.19
8051;BME280;4068;42.158;24.732;2024-01-27T02:12:43;100155.84;;;3.58;74.38
8051;BME280;4068;42.158;24.732;2024-01-27T02:15:13;100172.94;;;3.47;74.73
8051;BME280;4068;42.158;24.732;2024-01-27T02:17:39;100160.94;;;3.41;75.05
8051;BME280;4068;42.158;24.732;2024-01-27T02:20:06;100163.56;;;3.41;74.73
8051;BME280;4068;42.158;24.732;2024-01-27T02:22:35;100136.88;;;3.31;74.85
8051;BME280;4068;42.158;24.732;2024-01-27T02:25:04;100158.31;;;3.41;73.93
8051;BME280;4068;42.158;24.732;2024-01-27T02:27:30;100166.06;;;3.44;73.63
8051;BME280;4068;42.158;24.732;2024-01-27T02:29:56;100173.72;;;3.49;73.00
8051;BME280;4068;42.158;24.732;2024-01-27T02:32:21;100157.72;;;3.34;73.48
8051;BME280;4068;42.158;24.732;2024-01-27T02:34:47;100172.22;;;3.43;73.17
8051;BME280;4068;42.158;24.732;2024-01-27T02:37:12;100138.31;;;3.16;73.12
8051;BME280;4068;42.158;24.732;2024-01-27T02:39:38;100166.19;;;3.19;74.33
8051;BME280;4068;42.158;24.732;2024-01-27T02:42:05;100172.78;;;3.07;76.00
8051;BME280;4068;42.158;24.732;2024-01-27T02:44:31;100168.00;;;2.94;77.96
8051;BME280;4068;42.158;24.732;2024-01-27T02:46:56;100163.16;;;2.85;78.81
8051;BME280;4068;42.158;24.732;2024-01-27T02:49:22;100160.03;;;2.75;79.82
8051;BME280;4068;42.158;24.732;2024-01-27T02:51:47;100150.19;;;2.58;80.90
8051;BME280;4068;42.158;24.732;2024-01-27T02:54:13;100147.75;;;2.54;81.43
8051;BME280;4068;42.158;24.732;2024-01-27T02:56:38;100142.72;;;2.48;82.04
8051;BME280;4068;42.158;24.732;2024-01-27T02:59:04;100145.22;;;2.51;81.58
8051;BME280;4068;42.158;24.732;2024-01-27T03:01:30;100141.13;;;2.44;82.22
8051;BME280;4068;42.158;24.732;2024-01-27T03:03:56;100146.28;;;2.47;82.54
8051;BME280;4068;42.158;24.732;2024-01-27T03:06:22;100145.56;;;2.41;82.25
8051;BME280;4068;42.158;24.732;2024-01-27T03:08:48;100142.00;;;2.44;81.56
8051;BME280;4068;42.158;24.732;2024-01-27T03:11:13;100133.25;;;2.44;81.91
8051;BME280;4068;42.158;24.732;2024-01-27T03:13:39;100130.16;;;2.34;82.67
8051;BME280;4068;42.158;24.732;2024-01-27T03:16:10;100122.63;;;2.24;83.33
8051;BME280;4068;42.158;24.732;2024-01-27T03:18:36;100127.63;;;2.31;81.97
8051;BME280;4068;42.158;24.732;2024-01-27T03:21:02;100118.81;;;2.33;81.69
8051;BME280;4068;42.158;24.732;2024-01-27T03:23:28;100121.44;;;2.33;82.08
8051;BME280;4068;42.158;24.732;2024-01-27T03:25:54;100123.78;;;2.41;82.27
8051;BME280;4068;42.158;24.732;2024-01-27T03:28:20;100098.78;;;2.32;84.19
8051;BME280;4068;42.158;24.732;2024-01-27T03:30:45;100123.19;;;2.56;88.75
8051;BME280;4068;42.158;24.732;2024-01-27T03:33:11;100122.25;;;2.81;93.88
8051;BME280;4068;42.158;24.732;2024-01-27T03:35:38;100114.56;;;2.99;90.04
8051;BME280;4068;42.158;24.732;2024-01-27T03:38:05;100130.38;;;3.19;82.28
8051;BME280;4068;42.158;24.732;2024-01-27T03:40:30;100095.00;;;3.07;79.54
8051;BME280;4068;42.158;24.732;2024-01-27T03:42:56;100104.59;;;3.29;77.38
8051;BME280;4068;42.158;24.732;2024-01-27T03:45:22;100050.22;;;3.14;81.16
8051;BME280;4068;42.158;24.732;2024-01-27T03:47:47;100100.31;;;3.49;79.47
8051;BME280;4068;42.158;24.732;2024-01-27T03:50:13;100097.09;;;3.62;77.24
8051;BME280;4068;42.158;24.732;2024-01-27T03:52:38;100101.38;;;3.65;73.26
8051;BME280;4068;42.158;24.732;2024-01-27T03:55:04;100061.81;;;3.49;74.56
8051;BME280;4068;42.158;24.732;2024-01-27T03:57:30;100092.91;;;3.58;75.88
8051;BME280;4068;42.158;24.732;2024-01-27T03:59:56;100088.91;;;3.50;77.45
8051;BME280;4068;42.158;24.732;2024-01-27T04:02:22;100082.53;;;3.55;80.18
8051;BME280;4068;42.158;24.732;2024-01-27T04:04:47;100086.53;;;3.64;76.67
8051;BME280;4068;42.158;24.732;2024-01-27T04:07:12;100090.41;;;3.55;75.74
8051;BME280;4068;42.158;24.732;2024-01-27T04:09:38;100078.47;;;3.48;75.31
8051;BME280;4068;42.158;24.732;2024-01-27T04:12:04;100090.66;;;3.28;76.55
8051;BME280;4068;42.158;24.732;2024-01-27T04:14:30;100081.94;;;3.28;77.08
8051;BME280;4068;42.158;24.732;2024-01-27T04:16:55;100069.41;;;3.35;76.88
8051;BME280;4068;42.158;24.732;2024-01-27T04:19:21;100070.41;;;3.32;77.31
8051;BME280;4068;42.158;24.732;2024-01-27T04:21:46;100038.22;;;3.08;77.74
8051;BME280;4068;42.158;24.732;2024-01-27T04:24:12;100037.88;;;2.95;79.40
8051;BME280;4068;42.158;24.732;2024-01-27T04:26:37;100063.34;;;3.12;79.58
8051;BME280;4068;42.158;24.732;2024-01-27T04:29:03;100064.94;;;3.16;80.05
8051;BME280;4068;42.158;24.732;2024-01-27T04:31:28;100071.63;;;3.23;79.74
8051;BME280;4068;42.158;24.732;2024-01-27T04:33:56;100015.75;;;3.02;78.23
8051;BME280;4068;42.158;24.732;2024-01-27T04:36:31;100067.72;;;3.54;75.96
8051;BME280;4068;42.158;24.732;2024-01-27T04:38:57;100040.13;;;3.45;75.04
8051;BME280;4068;42.158;24.732;2024-01-27T04:41:22;100059.31;;;3.67;73.98
8051;BME280;4068;42.158;24.732;2024-01-27T04:43:48;100062.13;;;3.83;72.25
8051;BME280;4068;42.158;24.732;2024-01-27T04:46:13;100063.63;;;3.88;72.37
8051;BME280;4068;42.158;24.732;2024-01-27T04:48:39;100055.09;;;3.83;73.11
8051;BME280;4068;42.158;24.732;2024-01-27T04:51:04;100059.22;;;3.89;72.59
8051;BME280;4068;42.158;24.732;2024-01-27T04:53:30;100058.22;;;3.91;72.11
8051;BME280;4068;42.158;24.732;2024-01-27T04:55:55;100016.22;;;3.72;72.02
8051;BME280;4068;42.158;24.732;2024-01-27T04:58:21;100051.69;;;3.81;72.83
8051;BME280;4068;42.158;24.732;2024-01-27T05:00:46;100017.50;;;3.63;72.87
8051;BME280;4068;42.158;24.732;2024-01-27T05:03:12;100047.03;;;3.88;73.01
8051;BME280;4068;42.158;24.732;2024-01-27T05:05:42;100044.81;;;3.97;72.84
8051;BME280;4068;42.158;24.732;2024-01-27T05:08:08;100022.75;;;3.83;72.83
8051;BME280;4068;42.158;24.732;2024-01-27T05:10:35;100030.78;;;3.98;70.99
8051;BME280;4068;42.158;24.732;2024-01-27T05:13:00;100054.06;;;4.25;68.21
8051;BME280;4068;42.158;24.732;2024-01-27T05:15:26;100048.13;;;4.41;66.31
8051;BME280;4068;42.158;24.732;2024-01-27T05:17:52;100047.66;;;4.50;66.45
8051;BME280;4068;42.158;24.732;2024-01-27T05:20:17;100058.03;;;4.53;66.20
8051;BME280;4068;42.158;24.732;2024-01-27T05:22:44;100063.50;;;4.68;63.15
8051;BME280;4068;42.158;24.732;2024-01-27T05:25:09;100062.13;;;4.78;63.15
8051;BME280;4068;42.158;24.732;2024-01-27T05:27:37;100059.44;;;4.79;63.27
8051;BME280;4068;42.158;24.732;2024-01-27T05:30:04;100069.72;;;4.84;62.32
8051;BME280;4068;42.158;24.732;2024-01-27T05:32:29;100068.63;;;4.88;61.56
8051;BME280;4068;42.158;24.732;2024-01-27T05:34:55;100085.50;;;5.01;59.77
8051;BME280;4068;42.158;24.732;2024-01-27T05:37:20;100078.09;;;5.10;60.12
8051;BME280;4068;42.158;24.732;2024-01-27T05:39:46;100064.81;;;5.13;59.77
8051;BME280;4068;42.158;24.732;2024-01-27T05:42:11;100082.53;;;5.27;59.44
8051;BME280;4068;42.158;24.732;2024-01-27T05:44:37;100081.94;;;5.39;59.84
8051;BME280;4068;42.158;24.732;2024-01-27T05:47:03;100076.66;;;5.39;60.14
8051;BME280;4068;42.158;24.732;2024-01-27T05:49:29;100086.69;;;5.48;60.10
8051;BME280;4068;42.158;24.732;2024-01-27T05:51:54;100078.06;;;5.46;61.00
8051;BME280;4068;42.158;24.732;2024-01-27T05:54:20;100086.78;;;5.47;61.21
8051;BME280;4068;42.158;24.732;2024-01-27T05:56:45;100061.88;;;5.36;61.29
8051;BME280;4068;42.158;24.732;2024-01-27T05:59:11;100080.69;;;5.46;61.78
8051;BME280;4068;42.158;24.732;2024-01-27T06:01:36;100077.97;;;5.48;62.63
8051;BME280;4068;42.158;24.732;2024-01-27T06:04:02;100077.66;;;5.36;62.88
8051;BME280;4068;42.158;24.732;2024-01-27T06:06:28;100068.13;;;5.34;63.50
8051;BME280;4068;42.158;24.732;2024-01-27T06:08:53;100080.94;;;5.42;63.65
8051;BME280;4068;42.158;24.732;2024-01-27T06:11:25;100068.69;;;5.41;63.04
8051;BME280;4068;42.158;24.732;2024-01-27T06:13:51;100087.41;;;5.52;61.12
8051;BME280;4068;42.158;24.732;2024-01-27T06:16:19;100081.66;;;5.61;60.68
8051;BME280;4068;42.158;24.732;2024-01-27T06:18:45;100086.56;;;5.69;59.74
8051;BME280;4068;42.158;24.732;2024-01-27T06:21:11;100077.78;;;5.68;60.75
8051;BME280;4068;42.158;24.732;2024-01-27T06:23:36;100087.56;;;5.66;62.84
8051;BME280;4068;42.158;24.732;2024-01-27T06:26:08;100098.53;;;5.57;64.16
8051;BME280;4068;42.158;24.732;2024-01-27T06:28:34;100080.22;;;5.38;64.82
8051;BME280;4068;42.158;24.732;2024-01-27T06:31:03;100100.78;;;5.30;65.66
8051;BME280;4068;42.158;24.732;2024-01-27T06:33:28;100104.19;;;5.32;66.54
8051;BME280;4068;42.158;24.732;2024-01-27T06:35:54;100101.94;;;5.24;67.22
8051;BME280;4068;42.158;24.732;2024-01-27T06:38:19;100082.84;;;5.21;67.79
8051;BME280;4068;42.158;24.732;2024-01-27T06:40:45;100092.50;;;5.20;68.65
8051;BME280;4068;42.158;24.732;2024-01-27T06:43:12;100084.75;;;4.99;69.93
8051;BME280;4068;42.158;24.732;2024-01-27T06:45:39;100089.16;;;4.99;72.20
8051;BME280;4068;42.158;24.732;2024-01-27T06:48:05;100090.91;;;4.98;73.59
8051;BME280;4068;42.158;24.732;2024-01-27T06:50:31;100085.81;;;4.95;74.88
8051;BME280;4068;42.158;24.732;2024-01-27T06:52:57;100086.97;;;4.90;75.48
8051;BME280;4068;42.158;24.732;2024-01-27T06:55:22;100084.03;;;4.96;76.65
8051;BME280;4068;42.158;24.732;2024-01-27T06:57:48;100082.19;;;4.98;75.88
8051;BME280;4068;42.158;24.732;2024-01-27T07:00:14;100042.81;;;4.79;75.39
8051;BME280;4068;42.158;24.732;2024-01-27T07:02:40;100040.97;;;4.81;75.50
8051;BME280;4068;42.158;24.732;2024-01-27T07:05:07;100067.66;;;5.08;76.51
8051;BME280;4068;42.158;24.732;2024-01-27T07:07:33;100073.06;;;5.05;76.80
8051;BME280;4068;42.158;24.732;2024-01-27T07:09:59;100080.88;;;5.07;77.07
8051;BME280;4068;42.158;24.732;2024-01-27T07:12:25;100079.66;;;5.14;77.81
8051;BME280;4068;42.158;24.732;2024-01-27T07:14:51;100074.94;;;5.21;77.64
8051;BME280;4068;42.158;24.732;2024-01-27T07:17:17;100079.28;;;5.39;76.93
8051;BME280;4068;42.158;24.732;2024-01-27T07:19:43;100065.50;;;5.51;75.42
8051;BME280;4068;42.158;24.732;2024-01-27T07:22:09;100050.25;;;5.58;73.94
8051;BME280;4068;42.158;24.732;2024-01-27T07:24:34;100073.78;;;5.79;72.61
8051;BME280;4068;42.158;24.732;2024-01-27T07:27:00;100063.97;;;5.98;71.80
8051;BME280;4068;42.158;24.732;2024-01-27T07:29:27;100059.69;;;5.97;70.49
8051;BME280;4068;42.158;24.732;2024-01-27T07:31:52;100046.78;;;6.09;69.37
8051;BME280;4068;42.158;24.732;2024-01-27T07:34:18;100088.25;;;6.37;68.01
8051;BME280;4068;42.158;24.732;2024-01-27T07:36:44;100094.75;;;6.47;67.05
8051;BME280;4068;42.158;24.732;2024-01-27T07:39:10;100084.69;;;6.54;66.62
8051;BME280;4068;42.158;24.732;2024-01-27T07:41:36;100062.53;;;6.42;67.97
8051;BME280;4068;42.158;24.732;2024-01-27T07:44:12;100076.13;;;6.50;68.27
8051;BME280;4068;42.158;24.732;2024-01-27T07:46:38;100099.19;;;6.79;68.67
8051;BME280;4068;42.158;24.732;2024-01-27T07:49:08;100083.78;;;6.87;68.46
8051;BME280;4068;42.158;24.732;2024-01-27T07:51:34;100081.72;;;6.92;68.85
8051;BME280;4068;42.158;24.732;2024-01-27T07:54:00;100076.03;;;7.00;68.90
8051;BME280;4068;42.158;24.732;2024-01-27T07:56:26;100077.47;;;7.05;69.30
8051;BME280;4068;42.158;24.732;2024-01-27T07:58:52;100062.13;;;7.12;70.79
8051;BME280;4068;42.158;24.732;2024-01-27T08:01:18;100039.16;;;7.14;70.84
8051;BME280;4068;42.158;24.732;2024-01-27T08:03:44;100045.13;;;7.32;72.25
8051;BME280;4068;42.158;24.732;2024-01-27T08:06:18;100032.44;;;7.53;73.29
8051;BME280;4068;42.158;24.732;2024-01-27T08:08:48;100028.03;;;7.68;75.04
8051;BME280;4068;42.158;24.732;2024-01-27T08:11:14;100028.41;;;7.76;75.40
8051;BME280;4068;42.158;24.732;2024-01-27T08:13:41;100007.09;;;7.94;74.91
8051;BME280;4068;42.158;24.732;2024-01-27T08:16:07;100000.84;;;7.95;73.98
8051;BME280;4068;42.158;24.732;2024-01-27T08:18:35;99994.06;;;8.20;69.24
8051;BME280;4068;42.158;24.732;2024-01-27T08:21:03;99980.53;;;8.24;69.20
8051;BME280;4068;42.158;24.732;2024-01-27T08:23:28;99970.75;;;8.39;67.02
8051;BME280;4068;42.158;24.732;2024-01-27T08:25:54;99965.41;;;8.41;65.64
8051;BME280;4068;42.158;24.732;2024-01-27T08:28:19;99974.75;;;8.32;65.04
8051;BME280;4068;42.158;24.732;2024-01-27T08:30:45;99965.72;;;8.22;62.81
8051;BME280;4068;42.158;24.732;2024-01-27T08:33:11;99990.63;;;8.46;61.83
8051;BME280;4068;42.158;24.732;2024-01-27T08:35:36;99996.75;;;8.47;61.41
8051;BME280;4068;42.158;24.732;2024-01-27T08:38:02;99984.81;;;8.12;60.27
8051;BME280;4068;42.158;24.732;2024-01-27T08:40:29;100007.06;;;8.23;57.99
8051;BME280;4068;42.158;24.732;2024-01-27T08:42:55;100023.50;;;8.28;58.37
8051;BME280;4068;42.158;24.732;2024-01-27T08:45:20;100023.09;;;8.34;58.23
8051;BME280;4068;42.158;24.732;2024-01-27T08:47:46;100004.13;;;8.27;58.73
8051;BME280;4068;42.158;24.732;2024-01-27T08:50:11;100023.19;;;8.47;59.01
8051;BME280;4068;42.158;24.732;2024-01-27T08:52:37;100035.56;;;8.46;60.96
8051;BME280;4068;42.158;24.732;2024-01-27T08:55:02;100015.34;;;8.45;65.32
8051;BME280;4068;42.158;24.732;2024-01-27T08:57:28;99992.50;;;8.30;67.18
8051;BME280;4068;42.158;24.732;2024-01-27T08:59:53;100028.38;;;8.49;68.21
8051;BME280;4068;42.158;24.732;2024-01-27T09:02:19;100029.66;;;8.56;69.47
8051;BME280;4068;42.158;24.732;2024-01-27T09:04:44;100035.41;;;8.62;71.13
8051;BME280;4068;42.158;24.732;2024-01-27T09:07:11;100039.84;;;8.62;73.62
8051;BME280;4068;42.158;24.732;2024-01-27T09:09:36;100032.41;;;8.54;75.21
8051;BME280;4068;42.158;24.732;2024-01-27T09:12:04;100023.34;;;8.44;75.63
8051;BME280;4068;42.158;24.732;2024-01-27T09:14:29;100050.91;;;8.54;76.35
8051;BME280;4068;42.158;24.732;2024-01-27T09:16:55;100021.66;;;8.43;76.34
8051;BME280;4068;42.158;24.732;2024-01-27T09:19:20;100035.84;;;8.69;77.49
8051;BME280;4068;42.158;24.732;2024-01-27T09:21:46;100013.44;;;8.75;76.73
8051;BME280;4068;42.158;24.732;2024-01-27T09:24:12;100042.47;;;9.17;75.54
8051;BME280;4068;42.158;24.732;2024-01-27T09:26:37;100013.16;;;9.20;73.49
8051;BME280;4068;42.158;24.732;2024-01-27T09:29:02;100050.06;;;9.61;69.79
8051;BME280;4068;42.158;24.732;2024-01-27T09:31:28;99994.22;;;9.64;68.28
8051;BME280;4068;42.158;24.732;2024-01-27T09:33:54;100053.66;;;9.99;65.32
8051;BME280;4068;42.158;24.732;2024-01-27T09:36:20;100069.34;;;10.15;61.42
8051;BME280;4068;42.158;24.732;2024-01-27T09:38:46;100061.66;;;10.23;60.28
8051;BME280;4068;42.158;24.732;2024-01-27T09:41:15;100063.69;;;10.45;59.36
8051;BME280;4068;42.158;24.732;2024-01-27T09:43:45;100054.41;;;10.64;58.71
8051;BME280;4068;42.158;24.732;2024-01-27T09:46:14;100051.81;;;10.75;58.59
8051;BME280;4068;42.158;24.732;2024-01-27T09:48:40;100059.66;;;11.01;57.23
8051;BME280;4068;42.158;24.732;2024-01-27T09:51:07;100061.91;;;11.18;57.26
8051;BME280;4068;42.158;24.732;2024-01-27T09:53:33;100051.72;;;11.36;56.64
8051;BME280;4068;42.158;24.732;2024-01-27T09:55:59;100064.78;;;11.51;56.07
8051;BME280;4068;42.158;24.732;2024-01-27T09:58:28;100051.84;;;11.46;54.71
8051;BME280;4068;42.158;24.732;2024-01-27T10:00:56;100063.19;;;11.13;55.00
8051;BME280;4068;42.158;24.732;2024-01-27T10:03:26;100006.78;;;10.62;56.33
8051;BME280;4068;42.158;24.732;2024-01-27T10:05:54;100040.66;;;10.46;57.43
8051;BME280;4068;42.158;24.732;2024-01-27T10:08:21;100006.13;;;10.22;57.92
8051;BME280;4068;42.158;24.732;2024-01-27T10:10:47;100023.28;;;10.29;57.88
8051;BME280;4068;42.158;24.732;2024-01-27T10:13:16;100021.47;;;10.42;58.73
8051;BME280;4068;42.158;24.732;2024-01-27T10:16:05;100013.06;;;10.48;58.13
8051;BME280;4068;42.158;24.732;2024-01-27T10:18:32;100011.50;;;10.70;57.34
8051;BME280;4068;42.158;24.732;2024-01-27T10:20:58;100013.94;;;10.73;55.91
8051;BME280;4068;42.158;24.732;2024-01-27T10:23:23;100028.28;;;10.70;56.10
8051;BME280;4068;42.158;24.732;2024-01-27T10:25:49;100050.56;;;10.92;55.93
8051;BME280;4068;42.158;24.732;2024-01-27T10:28:15;100056.66;;;11.05;55.40
8051;BME280;4068;42.158;24.732;2024-01-27T10:30:41;100063.44;;;10.85;55.89
8051;BME280;4068;42.158;24.732;2024-01-27T10:33:11;100073.81;;;10.64;55.99
8051;BME280;4068;42.158;24.732;2024-01-27T10:35:42;100040.78;;;10.44;55.90
8051;BME280;4068;42.158;24.732;2024-01-27T10:38:08;100053.50;;;10.52;56.32
8051;BME280;4068;42.158;24.732;2024-01-27T10:40:35;100046.28;;;10.78;56.08
8051;BME280;4068;42.158;24.732;2024-01-27T10:43:06;100028.72;;;10.88;55.53
8051;BME280;4068;42.158;24.732;2024-01-27T10:45:40;100047.91;;;11.16;55.07
8051;BME280;4068;42.158;24.732;2024-01-27T10:48:07;100051.28;;;11.18;54.82
8051;BME280;4068;42.158;24.732;2024-01-27T10:50:38;100074.50;;;11.28;54.34
8051;BME280;4068;42.158;24.732;2024-01-27T10:53:08;100045.69;;;11.34;54.34
8051;BME280;4068;42.158;24.732;2024-01-27T10:55:34;100054.94;;;11.29;54.55
8051;BME280;4068;42.158;24.732;2024-01-27T10:58:03;100056.34;;;11.21;54.64
8051;BME280;4068;42.158;24.732;2024-01-27T11:00:29;100054.63;;;11.09;55.41
8051;BME280;4068;42.158;24.732;2024-01-27T11:02:59;100028.38;;;11.17;56.56
8051;BME280;4068;42.158;24.732;2024-01-27T11:05:27;100029.88;;;11.09;57.02
8051;BME280;4068;42.158;24.732;2024-01-27T11:07:53;100049.44;;;11.43;56.12
8051;BME280;4068;42.158;24.732;2024-01-27T11:10:18;100043.03;;;11.34;54.90
8051;BME280;4068;42.158;24.732;2024-01-27T11:12:45;100036.94;;;11.21;55.02
8051;BME280;4068;42.158;24.732;2024-01-27T11:15:12;100046.09;;;11.17;55.18
8051;BME280;4068;42.158;24.732;2024-01-27T11:17:41;100013.75;;;11.12;56.58
8051;BME280;4068;42.158;24.732;2024-01-27T11:20:08;100037.75;;;11.21;56.58
8051;BME280;4068;42.158;24.732;2024-01-27T11:22:36;100029.78;;;11.10;56.64
8051;BME280;4068;42.158;24.732;2024-01-27T11:27:31;100047.63;;;11.08;57.00
8051;BME280;4068;42.158;24.732;2024-01-27T11:29:57;100052.09;;;10.83;57.51
8051;BME280;4068;42.158;24.732;2024-01-27T11:32:22;100050.00;;;10.76;58.61
8051;BME280;4068;42.158;24.732;2024-01-27T11:34:48;100036.25;;;10.70;58.90
8051;BME280;4068;42.158;24.732;2024-01-27T11:37:17;100043.34;;;10.70;59.16
8051;BME280;4068;42.158;24.732;2024-01-27T11:39:43;100050.34;;;10.71;59.51
8051;BME280;4068;42.158;24.732;2024-01-27T11:42:10;100065.31;;;10.72;58.97
8051;BME280;4068;42.158;24.732;2024-01-27T11:44:39;100034.94;;;10.76;58.88
8051;BME280;4068;42.158;24.732;2024-01-27T11:47:05;100033.97;;;10.77;59.33
8051;BME280;4068;42.158;24.732;2024-01-27T11:49:38;100024.28;;;10.65;58.83
8051;BME280;4068;42.158;24.732;2024-01-27T11:52:06;100045.44;;;10.78;59.12
8051;BME280;4068;42.158;24.732;2024-01-27T11:54:32;100067.28;;;10.81;58.72
8051;BME280;4068;42.158;24.732;2024-01-27T11:56:57;100065.84;;;10.88;59.00
8051;BME280;4068;42.158;24.732;2024-01-27T11:59:23;100069.88;;;10.94;58.67
8051;BME280;4068;42.158;24.732;2024-01-27T12:01:49;100063.06;;;10.66;58.83
8051;BME280;4068;42.158;24.732;2024-01-27T12:04:14;100094.38;;;10.74;59.87
8051;BME280;4068;42.158;24.732;2024-01-27T12:06:42;100103.66;;;10.55;60.35
8051;BME280;4068;42.158;24.732;2024-01-27T12:09:09;100075.81;;;10.36;61.44
8051;BME280;4068;42.158;24.732;2024-01-27T12:11:38;100120.75;;;10.25;62.47
8051;BME280;4068;42.158;24.732;2024-01-27T12:14:07;100128.69;;;10.12;62.93
8051;BME280;4068;42.158;24.732;2024-01-27T12:16:33;100138.25;;;10.02;62.93
8051;BME280;4068;42.158;24.732;2024-01-27T12:18:58;100109.81;;;9.78;63.80
8051;BME280;4068;42.158;24.732;2024-01-27T12:21:24;100156.13;;;9.85;64.57
8051;BME280;4068;42.158;24.732;2024-01-27T12:23:54;100154.72;;;9.67;64.82
8051;BME280;4068;42.158;24.732;2024-01-27T12:26:21;100170.38;;;9.57;65.39
8051;BME280;4068;42.158;24.732;2024-01-27T12:28:47;100168.78;;;9.55;65.86
8051;BME280;4068;42.158;24.732;2024-01-27T12:31:15;100145.44;;;9.34;66.31
8051;BME280;4068;42.158;24.732;2024-01-27T12:33:51;100166.53;;;9.48;66.74
8051;BME280;4068;42.158;24.732;2024-01-27T12:36:18;100178.28;;;9.44;67.02
8051;BME280;4068;42.158;24.732;2024-01-27T12:39:02;100181.22;;;9.40;67.51
8051;BME280;4068;42.158;24.732;2024-01-27T12:41:30;100191.94;;;9.38;67.89
8051;BME280;4068;42.158;24.732;2024-01-27T12:43:58;100173.81;;;9.18;67.29
8051;BME280;4068;42.158;24.732;2024-01-27T12:46:23;100155.25;;;9.05;68.04
8051;BME280;4068;42.158;24.732;2024-01-27T12:48:49;100178.28;;;9.17;68.52
8051;BME280;4068;42.158;24.732;2024-01-27T12:51:14;100172.81;;;9.06;67.97
8051;BME280;4068;42.158;24.732;2024-01-27T12:53:41;100196.91;;;9.15;68.32
8051;BME280;4068;42.158;24.732;2024-01-27T12:56:13;100153.22;;;8.95;68.54
8051;BME280;4068;42.158;24.732;2024-01-27T12:58:39;100202.19;;;9.15;68.38
8051;BME280;4068;42.158;24.732;2024-01-27T13:01:06;100204.06;;;9.13;68.31
8051;BME280;4068;42.158;24.732;2024-01-27T13:03:32;100208.34;;;9.16;68.29
8051;BME280;4068;42.158;24.732;2024-01-27T13:05:57;100212.47;;;9.20;67.89
8051;BME280;4068;42.158;24.732;2024-01-27T13:08:23;100214.66;;;9.28;67.15